Kansas City, Missouri
Traffic Map
Current Weather Conditions
Kansas City, Missouri
Overcast
Overcast
23°
Feels Like: 23°
Wind Chill: 23° Ceiling: 1100
Heat Index: 23° Visibility: 10mi
Dew Point: 19° Wind: 5mph
Humidity: 79% Direction: 330° (NNW)
Pressure: 30.02in Gusts: 0mph
Raw Report DataKMKC 291654Z 33004KT 10SM OVC011 23/19 A3002 RMK AO2 SLP160 T02330194
Traffic Incident Summary
Active as of:
Severity:
Category:
InformationThere was an issue retrieving the traffic information for this location. Please try a different location or try again shortly.
Advertisements
Track Severe Weather on mobile